Etusivu
METAR-TAF:

METAR-TAF

Lentoasemat :

Billundin lentoasema

Billund, Tanska

Leveyspiiri: 55-44N, Pituuspiiri: 009-10E, korkeus merenpinnasta: 75 m

Tämänhetkinen sää

Tämä raportti tehtiin 32 minuuttia sitten, kello 10.50 UTC
Tuuli 6 kn koillisesta, vaihdellen pohjoisen ja idän välillä
Lämpötila 17°C
Kosteus 22%
Ilmanpaine 1034 hPa
Näkyvyys 10 km tai enemmän

METAR: EKBI 201050Z AUTO 05006KT 010V100 9999 NCD 17/M05 Q1034

Aika: 13:22 (11:22 UTC)

Sääennuste

Tämä raportti tehtiin 6 tuntia ja 14 minuuttia sitten, kello 05.08 UTC
Ennuste voimassa 20. päivästä klo 06 UTC - 21. päivään klo 06 UTC
Tuuli 5 kn idästä
Näkyvyys 10 km tai enemmän
ei pilviä alle 1500 m:ssä eikä cumulonimbus-pilviä

TAF: EKBI 200508Z 2006/2106 09005KT CAVOK

Säähavainnot ja -ennusteet yli 4000 lentoasemalta (METAR- ja TAF-raportit).

Käytössä olevat sääasemat on merkitty karttaan keltaisilla ja punaisilla pisteillä.

Aseta hiiri pisteen päälle nähdäksesi sääaseman nimen.

Klikkaa sitten nähdäksesi säähavainnot ja -ennusteet.

Kartan vaihtaminen: klikkaa mustalla rastilla varustettuja vihreitä pisteitä, niin voit zoomata sisään; viivalla varustettua vihreää pistettä, niin voit zoomata ulos tai vihreitä nuolia, niin pääset viereisille kartoille.


METAR-TAF: